Cayuga, New York
Current Conditions -  °F | °C
As of 2:53 AM on Tuesday 21 Oct 2014 (Local Time) from KPEO Reporting Station
Light Rain Light Rain  
Wind Chill: 47°   Ceiling: 4100
Heat Index: 49°   Visibility: 9mi
Dew Point: 45°   Wind: 6mph
Humidity: 86%   Direction: 180°S
Pressure: 29.82"   Gusts: NA
Location:  42.92°N, 76.73°W
Report Text: KPEO 210653Z AUTO 18005KT 9SM -RA OVC041 09/07 A2982 RMK AO2 SLP101 P0001 T00940072
Loading
Personal Weather Stations






























Interactive Weather Map
Tropical Storm Tracking
New forecast layout! Learn more

10-Day Weather Forecast

Advertisements
Track Severe Weather on mobile